sensor_id;sensor_type;location;lat;lon;timestamp;P1;durP1;ratioP1;P2;durP2;ratioP2
71172;SDS011;58875;51.996;4.504;2023-05-17T00:01:22;5.84;;;5.35;;
71172;SDS011;58875;51.996;4.504;2023-05-17T00:03:48;6.08;;;5.58;;
71172;SDS011;58875;51.996;4.504;2023-05-17T00:06:13;6.04;;;5.51;;
71172;SDS011;58875;51.996;4.504;2023-05-17T00:08:42;6.30;;;5.72;;
71172;SDS011;58875;51.996;4.504;2023-05-17T00:11:07;6.36;;;5.80;;
71172;SDS011;58875;51.996;4.504;2023-05-17T00:13:33;5.57;;;5.18;;
71172;SDS011;58875;51.996;4.504;2023-05-17T00:15:58;5.69;;;5.30;;
71172;SDS011;58875;51.996;4.504;2023-05-17T00:18:24;5.70;;;5.28;;
71172;SDS011;58875;51.996;4.504;2023-05-17T00:20:49;5.91;;;5.49;;
71172;SDS011;58875;51.996;4.504;2023-05-17T00:23:22;5.77;;;5.30;;
71172;SDS011;58875;51.996;4.504;2023-05-17T00:25:51;6.26;;;5.64;;
71172;SDS011;58875;51.996;4.504;2023-05-17T00:28:17;6.23;;;5.63;;
71172;SDS011;58875;51.996;4.504;2023-05-17T00:30:42;5.72;;;5.25;;
71172;SDS011;58875;51.996;4.504;2023-05-17T00:33:08;5.87;;;5.37;;
71172;SDS011;58875;51.996;4.504;2023-05-17T00:35:33;5.91;;;5.45;;
71172;SDS011;58875;51.996;4.504;2023-05-17T00:37:59;6.03;;;5.48;;
71172;SDS011;58875;51.996;4.504;2023-05-17T00:40:24;5.92;;;5.41;;
71172;SDS011;58875;51.996;4.504;2023-05-17T00:42:50;5.89;;;5.30;;
71172;SDS011;58875;51.996;4.504;2023-05-17T00:45:15;6.55;;;5.93;;
71172;SDS011;58875;51.996;4.504;2023-05-17T00:47:41;7.11;;;6.34;;
71172;SDS011;58875;51.996;4.504;2023-05-17T00:50:07;6.65;;;5.97;;
71172;SDS011;58875;51.996;4.504;2023-05-17T00:52:34;5.95;;;5.46;;
71172;SDS011;58875;51.996;4.504;2023-05-17T00:55:05;5.70;;;5.38;;
71172;SDS011;58875;51.996;4.504;2023-05-17T00:57:31;5.91;;;5.50;;
71172;SDS011;58875;51.996;4.504;2023-05-17T00:59:57;6.14;;;5.77;;
71172;SDS011;58875;51.996;4.504;2023-05-17T01:02:23;5.60;;;5.28;;
71172;SDS011;58875;51.996;4.504;2023-05-17T01:04:52;5.55;;;5.24;;
71172;SDS011;58875;51.996;4.504;2023-05-17T01:07:21;6.21;;;5.69;;
71172;SDS011;58875;51.996;4.504;2023-05-17T01:09:49;6.47;;;5.87;;
71172;SDS011;58875;51.996;4.504;2023-05-17T01:12:41;6.86;;;6.07;;
71172;SDS011;58875;51.996;4.504;2023-05-17T01:15:14;6.57;;;5.95;;
71172;SDS011;58875;51.996;4.504;2023-05-17T01:20:44;5.96;;;5.50;;
71172;SDS011;58875;51.996;4.504;2023-05-17T01:26:19;6.14;;;5.65;;
71172;SDS011;58875;51.996;4.504;2023-05-17T01:29:13;6.46;;;5.80;;
71172;SDS011;58875;51.996;4.504;2023-05-17T01:31:42;5.95;;;5.53;;
71172;SDS011;58875;51.996;4.504;2023-05-17T01:34:09;5.66;;;5.26;;
71172;SDS011;58875;51.996;4.504;2023-05-17T01:36:34;5.88;;;5.38;;
71172;SDS011;58875;51.996;4.504;2023-05-17T01:39:01;6.37;;;5.75;;
71172;SDS011;58875;51.996;4.504;2023-05-17T01:46:51;6.74;;;5.98;;
71172;SDS011;58875;51.996;4.504;2023-05-17T01:49:47;6.33;;;5.66;;
71172;SDS011;58875;51.996;4.504;2023-05-17T01:52:28;6.79;;;6.14;;
71172;SDS011;58875;51.996;4.504;2023-05-17T01:57:31;6.48;;;5.90;;
71172;SDS011;58875;51.996;4.504;2023-05-17T02:00:01;6.51;;;5.99;;
71172;SDS011;58875;51.996;4.504;2023-05-17T02:02:30;6.81;;;6.30;;
71172;SDS011;58875;51.996;4.504;2023-05-17T02:04:56;6.69;;;6.15;;
71172;SDS011;58875;51.996;4.504;2023-05-17T02:07:22;6.16;;;5.80;;
71172;SDS011;58875;51.996;4.504;2023-05-17T02:09:48;6.16;;;5.88;;
71172;SDS011;58875;51.996;4.504;2023-05-17T02:12:14;6.20;;;5.93;;
71172;SDS011;58875;51.996;4.504;2023-05-17T02:14:40;6.48;;;6.10;;
71172;SDS011;58875;51.996;4.504;2023-05-17T02:17:05;6.67;;;6.28;;
71172;SDS011;58875;51.996;4.504;2023-05-17T02:19:31;7.13;;;6.48;;
71172;SDS011;58875;51.996;4.504;2023-05-17T02:21:57;7.18;;;6.56;;
71172;SDS011;58875;51.996;4.504;2023-05-17T02:24:23;7.47;;;6.80;;
71172;SDS011;58875;51.996;4.504;2023-05-17T02:26:48;6.82;;;6.26;;
71172;SDS011;58875;51.996;4.504;2023-05-17T02:29:14;7.21;;;6.54;;
71172;SDS011;58875;51.996;4.504;2023-05-17T02:31:39;7.04;;;6.47;;
71172;SDS011;58875;51.996;4.504;2023-05-17T02:34:08;7.18;;;6.58;;
71172;SDS011;58875;51.996;4.504;2023-05-17T02:36:33;6.45;;;5.96;;
71172;SDS011;58875;51.996;4.504;2023-05-17T02:38:59;7.09;;;6.41;;
71172;SDS011;58875;51.996;4.504;2023-05-17T02:41:25;6.76;;;6.27;;
71172;SDS011;58875;51.996;4.504;2023-05-17T02:43:51;6.71;;;6.14;;
71172;SDS011;58875;51.996;4.504;2023-05-17T02:46:16;6.59;;;6.01;;
71172;SDS011;58875;51.996;4.504;2023-05-17T02:48:42;6.37;;;5.82;;
71172;SDS011;58875;51.996;4.504;2023-05-17T02:51:07;6.42;;;5.87;;
71172;SDS011;58875;51.996;4.504;2023-05-17T02:53:33;5.77;;;5.46;;
71172;SDS011;58875;51.996;4.504;2023-05-17T02:55:58;5.96;;;5.66;;
71172;SDS011;58875;51.996;4.504;2023-05-17T02:58:24;6.09;;;5.75;;
71172;SDS011;58875;51.996;4.504;2023-05-17T03:00:50;6.52;;;6.09;;
71172;SDS011;58875;51.996;4.504;2023-05-17T03:03:16;6.66;;;6.18;;
71172;SDS011;58875;51.996;4.504;2023-05-17T03:05:41;6.72;;;6.21;;
71172;SDS011;58875;51.996;4.504;2023-05-17T03:08:07;6.73;;;6.30;;
71172;SDS011;58875;51.996;4.504;2023-05-17T03:10:33;7.30;;;6.70;;
71172;SDS011;58875;51.996;4.504;2023-05-17T03:12:58;6.58;;;6.07;;
71172;SDS011;58875;51.996;4.504;2023-05-17T03:15:25;6.46;;;6.06;;
71172;SDS011;58875;51.996;4.504;2023-05-17T03:17:53;6.42;;;6.18;;
71172;SDS011;58875;51.996;4.504;2023-05-17T03:20:19;6.77;;;6.41;;
71172;SDS011;58875;51.996;4.504;2023-05-17T03:22:45;6.69;;;6.21;;
71172;SDS011;58875;51.996;4.504;2023-05-17T03:25:10;6.18;;;5.86;;
71172;SDS011;58875;51.996;4.504;2023-05-17T03:27:36;6.80;;;6.34;;
71172;SDS011;58875;51.996;4.504;2023-05-17T03:30:01;6.69;;;6.22;;
71172;SDS011;58875;51.996;4.504;2023-05-17T03:32:29;6.53;;;6.02;;
71172;SDS011;58875;51.996;4.504;2023-05-17T03:34:55;6.42;;;5.90;;
71172;SDS011;58875;51.996;4.504;2023-05-17T03:37:21;6.80;;;6.30;;
71172;SDS011;58875;51.996;4.504;2023-05-17T03:39:46;6.15;;;5.74;;
71172;SDS011;58875;51.996;4.504;2023-05-17T03:42:12;6.32;;;5.88;;
71172;SDS011;58875;51.996;4.504;2023-05-17T03:44:39;6.01;;;5.61;;
71172;SDS011;58875;51.996;4.504;2023-05-17T03:47:10;6.45;;;5.91;;
71172;SDS011;58875;51.996;4.504;2023-05-17T03:49:38;6.14;;;5.70;;
71172;SDS011;58875;51.996;4.504;2023-05-17T03:52:04;6.14;;;5.78;;
71172;SDS011;58875;51.996;4.504;2023-05-17T03:54:29;6.18;;;5.74;;
71172;SDS011;58875;51.996;4.504;2023-05-17T03:56:55;5.86;;;5.49;;
71172;SDS011;58875;51.996;4.504;2023-05-17T03:59:20;5.32;;;5.05;;
71172;SDS011;58875;51.996;4.504;2023-05-17T04:01:46;5.39;;;5.05;;
71172;SDS011;58875;51.996;4.504;2023-05-17T04:04:12;5.28;;;4.99;;
71172;SDS011;58875;51.996;4.504;2023-05-17T04:06:38;5.31;;;4.91;;
71172;SDS011;58875;51.996;4.504;2023-05-17T04:09:04;5.33;;;4.78;;
71172;SDS011;58875;51.996;4.504;2023-05-17T04:11:33;5.78;;;5.00;;
71172;SDS011;58875;51.996;4.504;2023-05-17T04:14:03;5.66;;;4.93;;
71172;SDS011;58875;51.996;4.504;2023-05-17T04:16:32;5.81;;;5.01;;
71172;SDS011;58875;51.996;4.504;2023-05-17T04:19:01;5.31;;;4.62;;
71172;SDS011;58875;51.996;4.504;2023-05-17T04:21:26;5.16;;;4.42;;
71172;SDS011;58875;51.996;4.504;2023-05-17T04:23:52;5.65;;;4.78;;
71172;SDS011;58875;51.996;4.504;2023-05-17T04:26:18;5.41;;;4.55;;
71172;SDS011;58875;51.996;4.504;2023-05-17T04:28:52;5.48;;;4.55;;
71172;SDS011;58875;51.996;4.504;2023-05-17T04:31:18;5.46;;;4.56;;
71172;SDS011;58875;51.996;4.504;2023-05-17T04:33:43;5.72;;;4.56;;
71172;SDS011;58875;51.996;4.504;2023-05-17T04:36:09;6.49;;;4.97;;
71172;SDS011;58875;51.996;4.504;2023-05-17T04:38:35;7.24;;;5.45;;
71172;SDS011;58875;51.996;4.504;2023-05-17T04:41:05;6.35;;;4.88;;
71172;SDS011;58875;51.996;4.504;2023-05-17T04:43:36;7.07;;;5.38;;
71172;SDS011;58875;51.996;4.504;2023-05-17T04:46:02;6.87;;;5.22;;
71172;SDS011;58875;51.996;4.504;2023-05-17T04:48:30;6.22;;;4.76;;
71172;SDS011;58875;51.996;4.504;2023-05-17T04:50:59;6.69;;;5.05;;
71172;SDS011;58875;51.996;4.504;2023-05-17T04:53:26;7.37;;;5.56;;
71172;SDS011;58875;51.996;4.504;2023-05-17T04:55:51;7.52;;;5.53;;
71172;SDS011;58875;51.996;4.504;2023-05-17T04:58:17;6.64;;;5.07;;
71172;SDS011;58875;51.996;4.504;2023-05-17T05:00:48;6.31;;;4.77;;
71172;SDS011;58875;51.996;4.504;2023-05-17T05:03:23;7.25;;;5.43;;
71172;SDS011;58875;51.996;4.504;2023-05-17T05:05:50;6.96;;;5.15;;
71172;SDS011;58875;51.996;4.504;2023-05-17T05:08:16;6.88;;;5.09;;
71172;SDS011;58875;51.996;4.504;2023-05-17T05:10:42;6.60;;;4.91;;
71172;SDS011;58875;51.996;4.504;2023-05-17T05:13:07;6.53;;;4.87;;
71172;SDS011;58875;51.996;4.504;2023-05-17T05:15:33;6.99;;;5.13;;
71172;SDS011;58875;51.996;4.504;2023-05-17T05:17:58;6.94;;;5.09;;
71172;SDS011;58875;51.996;4.504;2023-05-17T05:20:24;6.92;;;5.07;;
71172;SDS011;58875;51.996;4.504;2023-05-17T05:22:49;7.33;;;5.30;;
71172;SDS011;58875;51.996;4.504;2023-05-17T05:25:15;7.15;;;5.26;;
71172;SDS011;58875;51.996;4.504;2023-05-17T05:27:41;7.27;;;5.33;;
71172;SDS011;58875;51.996;4.504;2023-05-17T05:30:06;7.77;;;5.72;;
71172;SDS011;58875;51.996;4.504;2023-05-17T05:32:32;8.26;;;6.07;;
71172;SDS011;58875;51.996;4.504;2023-05-17T05:34:58;7.83;;;5.77;;
71172;SDS011;58875;51.996;4.504;2023-05-17T05:37:23;8.30;;;6.05;;
71172;SDS011;58875;51.996;4.504;2023-05-17T05:39:49;7.69;;;5.49;;
71172;SDS011;58875;51.996;4.504;2023-05-17T05:42:15;7.15;;;5.16;;
71172;SDS011;58875;51.996;4.504;2023-05-17T05:44:41;7.77;;;5.55;;
71172;SDS011;58875;51.996;4.504;2023-05-17T05:47:06;8.07;;;5.75;;
71172;SDS011;58875;51.996;4.504;2023-05-17T05:49:32;8.40;;;6.05;;
71172;SDS011;58875;51.996;4.504;2023-05-17T05:51:57;7.11;;;5.16;;
71172;SDS011;58875;51.996;4.504;2023-05-17T05:54:23;7.24;;;5.25;;
71172;SDS011;58875;51.996;4.504;2023-05-17T05:56:49;7.17;;;5.17;;
71172;SDS011;58875;51.996;4.504;2023-05-17T05:59:15;7.67;;;5.44;;
71172;SDS011;58875;51.996;4.504;2023-05-17T06:01:41;7.77;;;5.32;;
71172;SDS011;58875;51.996;4.504;2023-05-17T06:04:07;8.45;;;5.72;;
71172;SDS011;58875;51.996;4.504;2023-05-17T06:06:34;7.59;;;5.16;;
71172;SDS011;58875;51.996;4.504;2023-05-17T06:08:59;7.56;;;5.24;;
71172;SDS011;58875;51.996;4.504;2023-05-17T06:11:25;7.64;;;5.30;;
71172;SDS011;58875;51.996;4.504;2023-05-17T06:13:51;7.67;;;5.24;;
71172;SDS011;58875;51.996;4.504;2023-05-17T06:16:16;7.31;;;5.03;;
71172;SDS011;58875;51.996;4.504;2023-05-17T06:18:42;7.23;;;4.94;;
71172;SDS011;58875;51.996;4.504;2023-05-17T06:21:13;6.73;;;4.64;;
71172;SDS011;58875;51.996;4.504;2023-05-17T06:23:40;7.49;;;5.15;;
71172;SDS011;58875;51.996;4.504;2023-05-17T06:26:05;7.06;;;4.80;;
71172;SDS011;58875;51.996;4.504;2023-05-17T06:28:34;7.30;;;4.96;;
71172;SDS011;58875;51.996;4.504;2023-05-17T06:31:00;7.97;;;5.33;;
71172;SDS011;58875;51.996;4.504;2023-05-17T06:33:26;8.20;;;5.43;;
71172;SDS011;58875;51.996;4.504;2023-05-17T06:35:51;8.48;;;5.65;;
71172;SDS011;58875;51.996;4.504;2023-05-17T06:38:19;6.91;;;4.67;;
71172;SDS011;58875;51.996;4.504;2023-05-17T06:40:45;7.56;;;5.12;;
71172;SDS011;58875;51.996;4.504;2023-05-17T06:43:10;6.98;;;4.72;;
71172;SDS011;58875;51.996;4.504;2023-05-17T06:45:36;7.39;;;5.02;;
71172;SDS011;58875;51.996;4.504;2023-05-17T06:48:01;7.71;;;5.22;;
71172;SDS011;58875;51.996;4.504;2023-05-17T06:50:27;6.67;;;4.50;;
71172;SDS011;58875;51.996;4.504;2023-05-17T06:52:53;7.23;;;4.89;;
71172;SDS011;58875;51.996;4.504;2023-05-17T06:55:18;6.54;;;4.44;;
71172;SDS011;58875;51.996;4.504;2023-05-17T06:57:44;6.93;;;4.68;;
71172;SDS011;58875;51.996;4.504;2023-05-17T07:00:09;6.83;;;4.68;;
71172;SDS011;58875;51.996;4.504;2023-05-17T07:02:36;6.54;;;4.50;;
71172;SDS011;58875;51.996;4.504;2023-05-17T07:05:03;6.93;;;4.74;;
71172;SDS011;58875;51.996;4.504;2023-05-17T07:07:30;6.76;;;4.67;;
71172;SDS011;58875;51.996;4.504;2023-05-17T07:09:56;6.76;;;4.57;;
71172;SDS011;58875;51.996;4.504;2023-05-17T07:12:21;7.08;;;4.76;;
71172;SDS011;58875;51.996;4.504;2023-05-17T07:14:47;8.03;;;5.34;;
71172;SDS011;58875;51.996;4.504;2023-05-17T07:17:14;7.78;;;5.16;;
71172;SDS011;58875;51.996;4.504;2023-05-17T07:19:57;6.92;;;4.67;;
71172;SDS011;58875;51.996;4.504;2023-05-17T07:22:23;7.30;;;4.89;;
71172;SDS011;58875;51.996;4.504;2023-05-17T07:24:48;6.80;;;4.57;;
71172;SDS011;58875;51.996;4.504;2023-05-17T07:27:15;6.52;;;4.40;;
71172;SDS011;58875;51.996;4.504;2023-05-17T07:29:44;7.17;;;4.85;;
71172;SDS011;58875;51.996;4.504;2023-05-17T07:32:10;5.93;;;4.08;;
71172;SDS011;58875;51.996;4.504;2023-05-17T07:34:36;6.09;;;4.24;;
71172;SDS011;58875;51.996;4.504;2023-05-17T07:37:01;5.81;;;4.03;;
71172;SDS011;58875;51.996;4.504;2023-05-17T07:39:27;5.47;;;3.83;;
71172;SDS011;58875;51.996;4.504;2023-05-17T07:41:56;6.06;;;4.23;;
71172;SDS011;58875;51.996;4.504;2023-05-17T07:44:21;6.52;;;4.40;;
71172;SDS011;58875;51.996;4.504;2023-05-17T07:46:47;7.00;;;4.68;;
71172;SDS011;58875;51.996;4.504;2023-05-17T07:49:13;6.09;;;4.12;;
71172;SDS011;58875;51.996;4.504;2023-05-17T07:51:39;5.42;;;3.70;;
71172;SDS011;58875;51.996;4.504;2023-05-17T07:54:05;5.41;;;3.71;;
71172;SDS011;58875;51.996;4.504;2023-05-17T07:56:33;5.96;;;4.09;;
71172;SDS011;58875;51.996;4.504;2023-05-17T07:58:59;5.43;;;3.82;;
71172;SDS011;58875;51.996;4.504;2023-05-17T08:01:42;5.23;;;3.70;;
71172;SDS011;58875;51.996;4.504;2023-05-17T08:04:07;4.81;;;3.43;;
71172;SDS011;58875;51.996;4.504;2023-05-17T08:06:33;5.54;;;3.93;;
71172;SDS011;58875;51.996;4.504;2023-05-17T08:08:58;5.04;;;3.53;;
71172;SDS011;58875;51.996;4.504;2023-05-17T08:11:24;5.38;;;3.73;;
71172;SDS011;58875;51.996;4.504;2023-05-17T08:13:49;5.08;;;3.51;;
71172;SDS011;58875;51.996;4.504;2023-05-17T08:16:15;4.99;;;3.47;;
71172;SDS011;58875;51.996;4.504;2023-05-17T08:18:41;4.76;;;3.36;;
71172;SDS011;58875;51.996;4.504;2023-05-17T08:21:07;4.75;;;3.40;;
71172;SDS011;58875;51.996;4.504;2023-05-17T08:23:32;3.76;;;2.75;;
71172;SDS011;58875;51.996;4.504;2023-05-17T08:25:58;3.94;;;2.91;;
71172;SDS011;58875;51.996;4.504;2023-05-17T08:28:23;3.63;;;2.71;;
71172;SDS011;58875;51.996;4.504;2023-05-17T08:30:49;4.02;;;2.98;;
71172;SDS011;58875;51.996;4.504;2023-05-17T08:33:14;3.63;;;2.71;;
71172;SDS011;58875;51.996;4.504;2023-05-17T08:35:40;3.72;;;2.79;;
71172;SDS011;58875;51.996;4.504;2023-05-17T08:38:05;3.53;;;2.65;;
71172;SDS011;58875;51.996;4.504;2023-05-17T08:40:35;3.29;;;2.50;;
71172;SDS011;58875;51.996;4.504;2023-05-17T08:43:06;3.44;;;2.60;;
71172;SDS011;58875;51.996;4.504;2023-05-17T08:45:36;3.47;;;2.58;;
71172;SDS011;58875;51.996;4.504;2023-05-17T08:48:03;3.51;;;2.64;;
71172;SDS011;58875;51.996;4.504;2023-05-17T08:50:33;3.42;;;2.62;;
71172;SDS011;58875;51.996;4.504;2023-05-17T08:53:00;3.01;;;2.30;;
71172;SDS011;58875;51.996;4.504;2023-05-17T08:55:26;3.11;;;2.35;;
71172;SDS011;58875;51.996;4.504;2023-05-17T08:57:57;3.09;;;2.31;;
71172;SDS011;58875;51.996;4.504;2023-05-17T09:00:24;3.19;;;2.34;;
71172;SDS011;58875;51.996;4.504;2023-05-17T09:02:50;3.26;;;2.38;;
71172;SDS011;58875;51.996;4.504;2023-05-17T09:05:16;3.55;;;2.60;;
71172;SDS011;58875;51.996;4.504;2023-05-17T09:07:42;3.53;;;2.56;;
71172;SDS011;58875;51.996;4.504;2023-05-17T09:10:08;4.01;;;2.89;;
71172;SDS011;58875;51.996;4.504;2023-05-17T09:12:34;3.78;;;2.73;;
71172;SDS011;58875;51.996;4.504;2023-05-17T09:15:15;3.52;;;2.62;;
71172;SDS011;58875;51.996;4.504;2023-05-17T09:17:49;2.90;;;2.19;;
71172;SDS011;58875;51.996;4.504;2023-05-17T09:20:27;3.51;;;2.63;;
71172;SDS011;58875;51.996;4.504;2023-05-17T09:23:07;3.39;;;2.48;;
71172;SDS011;58875;51.996;4.504;2023-05-17T09:25:37;3.75;;;2.74;;
71172;SDS011;58875;51.996;4.504;2023-05-17T09:28:11;3.50;;;2.62;;
71172;SDS011;58875;51.996;4.504;2023-05-17T09:30:38;3.48;;;2.63;;
71172;SDS011;58875;51.996;4.504;2023-05-17T09:33:06;3.29;;;2.53;;
71172;SDS011;58875;51.996;4.504;2023-05-17T09:35:33;3.01;;;2.32;;
71172;SDS011;58875;51.996;4.504;2023-05-17T09:38:05;3.15;;;2.45;;
71172;SDS011;58875;51.996;4.504;2023-05-17T09:40:41;3.35;;;2.59;;
71172;SDS011;58875;51.996;4.504;2023-05-17T09:43:08;3.57;;;2.76;;
71172;SDS011;58875;51.996;4.504;2023-05-17T09:45:35;3.42;;;2.66;;
71172;SDS011;58875;51.996;4.504;2023-05-17T09:48:16;3.23;;;2.50;;
71172;SDS011;58875;51.996;4.504;2023-05-17T09:50:52;3.73;;;2.83;;
71172;SDS011;58875;51.996;4.504;2023-05-17T09:53:28;3.94;;;2.92;;
71172;SDS011;58875;51.996;4.504;2023-05-17T09:56:13;3.84;;;2.85;;
71172;SDS011;58875;51.996;4.504;2023-05-17T09:58:43;3.69;;;2.81;;
71172;SDS011;58875;51.996;4.504;2023-05-17T10:01:12;3.25;;;2.55;;
71172;SDS011;58875;51.996;4.504;2023-05-17T10:03:46;3.33;;;2.65;;
71172;SDS011;58875;51.996;4.504;2023-05-17T10:06:12;2.77;;;2.23;;
71172;SDS011;58875;51.996;4.504;2023-05-17T10:08:43;2.94;;;2.37;;
71172;SDS011;58875;51.996;4.504;2023-05-17T10:11:10;3.25;;;2.61;;
71172;SDS011;58875;51.996;4.504;2023-05-17T10:13:38;2.80;;;2.26;;
71172;SDS011;58875;51.996;4.504;2023-05-17T10:16:06;3.01;;;2.42;;
71172;SDS011;58875;51.996;4.504;2023-05-17T10:18:32;2.70;;;2.21;;
71172;SDS011;58875;51.996;4.504;2023-05-17T10:20:58;2.67;;;2.19;;
71172;SDS011;58875;51.996;4.504;2023-05-17T10:23:26;2.99;;;2.40;;
71172;SDS011;58875;51.996;4.504;2023-05-17T10:25:59;3.15;;;2.53;;
71172;SDS011;58875;51.996;4.504;2023-05-17T10:28:28;2.85;;;2.32;;
71172;SDS011;58875;51.996;4.504;2023-05-17T10:30:54;2.77;;;2.29;;
71172;SDS011;58875;51.996;4.504;2023-05-17T10:33:23;2.93;;;2.40;;
71172;SDS011;58875;51.996;4.504;2023-05-17T10:35:51;2.60;;;2.16;;
71172;SDS011;58875;51.996;4.504;2023-05-17T10:38:18;2.84;;;2.34;;
71172;SDS011;58875;51.996;4.504;2023-05-17T10:40:45;2.60;;;2.14;;
71172;SDS011;58875;51.996;4.504;2023-05-17T10:43:12;2.31;;;1.92;;
71172;SDS011;58875;51.996;4.504;2023-05-17T10:45:40;2.48;;;2.07;;
71172;SDS011;58875;51.996;4.504;2023-05-17T10:48:06;2.61;;;2.17;;
71172;SDS011;58875;51.996;4.504;2023-05-17T10:50:36;2.73;;;2.28;;
71172;SDS011;58875;51.996;4.504;2023-05-17T10:53:07;2.46;;;2.05;;
71172;SDS011;58875;51.996;4.504;2023-05-17T10:55:42;2.80;;;2.34;;
71172;SDS011;58875;51.996;4.504;2023-05-17T10:58:18;2.86;;;2.36;;
71172;SDS011;58875;51.996;4.504;2023-05-17T11:00:47;2.69;;;2.26;;
71172;SDS011;58875;51.996;4.504;2023-05-17T11:03:18;2.53;;;2.13;;
71172;SDS011;58875;51.996;4.504;2023-05-17T11:06:12;2.66;;;2.23;;
71172;SDS011;58875;51.996;4.504;2023-05-17T11:08:45;2.74;;;2.33;;
71172;SDS011;58875;51.996;4.504;2023-05-17T11:11:54;2.71;;;2.27;;
71172;SDS011;58875;51.996;4.504;2023-05-17T11:17:22;3.01;;;2.49;;
71172;SDS011;58875;51.996;4.504;2023-05-17T11:19:54;3.01;;;2.46;;
71172;SDS011;58875;51.996;4.504;2023-05-17T11:22:42;3.23;;;2.55;;
71172;SDS011;58875;51.996;4.504;2023-05-17T11:25:20;3.47;;;2.70;;
71172;SDS011;58875;51.996;4.504;2023-05-17T11:27:46;3.68;;;2.83;;
71172;SDS011;58875;51.996;4.504;2023-05-17T11:30:23;3.71;;;2.87;;
71172;SDS011;58875;51.996;4.504;2023-05-17T11:32:53;3.24;;;2.49;;
71172;SDS011;58875;51.996;4.504;2023-05-17T11:35:23;4.08;;;3.07;;
71172;SDS011;58875;51.996;4.504;2023-05-17T11:37:52;3.65;;;2.76;;
71172;SDS011;58875;51.996;4.504;2023-05-17T11:40:37;3.69;;;2.81;;
71172;SDS011;58875;51.996;4.504;2023-05-17T11:43:10;3.65;;;2.82;;
71172;SDS011;58875;51.996;4.504;2023-05-17T11:45:43;3.03;;;2.38;;
71172;SDS011;58875;51.996;4.504;2023-05-17T11:48:15;3.33;;;2.63;;
71172;SDS011;58875;51.996;4.504;2023-05-17T11:50:43;3.26;;;2.57;;
71172;SDS011;58875;51.996;4.504;2023-05-17T11:53:10;3.41;;;2.63;;
71172;SDS011;58875;51.996;4.504;2023-05-17T11:55:47;3.66;;;2.81;;
71172;SDS011;58875;51.996;4.504;2023-05-17T11:58:19;3.63;;;2.85;;
71172;SDS011;58875;51.996;4.504;2023-05-17T12:00:52;3.40;;;2.69;;
71172;SDS011;58875;51.996;4.504;2023-05-17T12:03:20;3.07;;;2.47;;
71172;SDS011;58875;51.996;4.504;2023-05-17T12:05:49;3.55;;;2.77;;
71172;SDS011;58875;51.996;4.504;2023-05-17T12:08:26;3.84;;;2.96;;
71172;SDS011;58875;51.996;4.504;2023-05-17T12:10:52;3.33;;;2.64;;
71172;SDS011;58875;51.996;4.504;2023-05-17T12:13:20;2.89;;;2.37;;
71172;SDS011;58875;51.996;4.504;2023-05-17T12:15:54;3.84;;;3.17;;
71172;SDS011;58875;51.996;4.504;2023-05-17T12:18:22;3.47;;;2.80;;
71172;SDS011;58875;51.996;4.504;2023-05-17T12:20:52;3.29;;;2.62;;
71172;SDS011;58875;51.996;4.504;2023-05-17T12:23:28;3.10;;;2.47;;
71172;SDS011;58875;51.996;4.504;2023-05-17T12:26:06;3.20;;;2.59;;
71172;SDS011;58875;51.996;4.504;2023-05-17T12:28:38;3.08;;;2.49;;
71172;SDS011;58875;51.996;4.504;2023-05-17T12:31:07;2.88;;;2.35;;
71172;SDS011;58875;51.996;4.504;2023-05-17T12:33:37;3.05;;;2.50;;
71172;SDS011;58875;51.996;4.504;2023-05-17T12:36:08;3.38;;;2.73;;
71172;SDS011;58875;51.996;4.504;2023-05-17T12:38:37;3.23;;;2.59;;
71172;SDS011;58875;51.996;4.504;2023-05-17T12:41:06;3.38;;;2.73;;
71172;SDS011;58875;51.996;4.504;2023-05-17T12:43:34;3.13;;;2.54;;
71172;SDS011;58875;51.996;4.504;2023-05-17T12:48:32;3.04;;;2.50;;
71172;SDS011;58875;51.996;4.504;2023-05-17T12:53:52;3.27;;;2.67;;
71172;SDS011;58875;51.996;4.504;2023-05-17T12:56:20;3.11;;;2.61;;
71172;SDS011;58875;51.996;4.504;2023-05-17T13:01:41;2.91;;;2.55;;
71172;SDS011;58875;51.996;4.504;2023-05-17T13:04:09;2.56;;;2.30;;
71172;SDS011;58875;51.996;4.504;2023-05-17T13:09:15;3.10;;;2.68;;
71172;SDS011;58875;51.996;4.504;2023-05-17T13:11:51;2.72;;;2.38;;
71172;SDS011;58875;51.996;4.504;2023-05-17T13:17:05;2.93;;;2.61;;
71172;SDS011;58875;51.996;4.504;2023-05-17T13:19:33;3.17;;;2.77;;
71172;SDS011;58875;51.996;4.504;2023-05-17T13:22:04;3.78;;;3.14;;
71172;SDS011;58875;51.996;4.504;2023-05-17T13:24:35;3.64;;;2.95;;
71172;SDS011;58875;51.996;4.504;2023-05-17T13:27:02;3.47;;;2.89;;
71172;SDS011;58875;51.996;4.504;2023-05-17T13:29:30;3.57;;;3.03;;
71172;SDS011;58875;51.996;4.504;2023-05-17T13:31:58;3.47;;;2.86;;
71172;SDS011;58875;51.996;4.504;2023-05-17T13:34:25;3.56;;;2.93;;
71172;SDS011;58875;51.996;4.504;2023-05-17T13:36:51;3.84;;;3.17;;
71172;SDS011;58875;51.996;4.504;2023-05-17T13:39:16;3.25;;;2.66;;
71172;SDS011;58875;51.996;4.504;2023-05-17T13:41:42;3.86;;;3.17;;
71172;SDS011;58875;51.996;4.504;2023-05-17T13:44:09;3.29;;;2.75;;
71172;SDS011;58875;51.996;4.504;2023-05-17T13:46:34;3.77;;;3.15;;
71172;SDS011;58875;51.996;4.504;2023-05-17T13:49:00;3.02;;;2.57;;
71172;SDS011;58875;51.996;4.504;2023-05-17T13:51:29;3.39;;;2.92;;
71172;SDS011;58875;51.996;4.504;2023-05-17T13:53:55;3.35;;;2.85;;
71172;SDS011;58875;51.996;4.504;2023-05-17T13:56:21;3.63;;;3.00;;
71172;SDS011;58875;51.996;4.504;2023-05-17T13:58:46;3.77;;;3.15;;
71172;SDS011;58875;51.996;4.504;2023-05-17T14:01:13;3.86;;;3.18;;
71172;SDS011;58875;51.996;4.504;2023-05-17T14:03:40;3.37;;;2.79;;
71172;SDS011;58875;51.996;4.504;2023-05-17T14:06:05;3.27;;;2.74;;
71172;SDS011;58875;51.996;4.504;2023-05-17T14:08:31;3.31;;;2.75;;
71172;SDS011;58875;51.996;4.504;2023-05-17T14:10:57;3.49;;;2.93;;
71172;SDS011;58875;51.996;4.504;2023-05-17T14:13:23;3.34;;;2.88;;
71172;SDS011;58875;51.996;4.504;2023-05-17T14:15:48;3.01;;;2.61;;
71172;SDS011;58875;51.996;4.504;2023-05-17T14:18:14;3.63;;;3.09;;
71172;SDS011;58875;51.996;4.504;2023-05-17T14:20:39;3.11;;;2.66;;
71172;SDS011;58875;51.996;4.504;2023-05-17T14:23:05;3.12;;;2.74;;
71172;SDS011;58875;51.996;4.504;2023-05-17T14:25:31;3.11;;;2.73;;
71172;SDS011;58875;51.996;4.504;2023-05-17T14:27:57;2.76;;;2.47;;
71172;SDS011;58875;51.996;4.504;2023-05-17T14:30:22;2.95;;;2.61;;
71172;SDS011;58875;51.996;4.504;2023-05-17T14:32:48;2.93;;;2.58;;
71172;SDS011;58875;51.996;4.504;2023-05-17T14:35:14;3.15;;;2.80;;
71172;SDS011;58875;51.996;4.504;2023-05-17T14:37:43;3.59;;;3.14;;
71172;SDS011;58875;51.996;4.504;2023-05-17T14:40:09;3.35;;;2.93;;
71172;SDS011;58875;51.996;4.504;2023-05-17T14:42:36;3.55;;;3.02;;
71172;SDS011;58875;51.996;4.504;2023-05-17T14:45:02;3.88;;;3.29;;
71172;SDS011;58875;51.996;4.504;2023-05-17T14:47:28;3.59;;;3.10;;
71172;SDS011;58875;51.996;4.504;2023-05-17T14:49:53;3.43;;;2.93;;
71172;SDS011;58875;51.996;4.504;2023-05-17T14:52:19;3.54;;;3.04;;
71172;SDS011;58875;51.996;4.504;2023-05-17T14:54:45;3.21;;;2.74;;
71172;SDS011;58875;51.996;4.504;2023-05-17T14:57:10;3.33;;;2.84;;
71172;SDS011;58875;51.996;4.504;2023-05-17T14:59:36;3.54;;;2.99;;
71172;SDS011;58875;51.996;4.504;2023-05-17T15:02:02;3.31;;;2.87;;
71172;SDS011;58875;51.996;4.504;2023-05-17T15:04:28;3.69;;;3.12;;
71172;SDS011;58875;51.996;4.504;2023-05-17T15:06:54;3.50;;;2.94;;
71172;SDS011;58875;51.996;4.504;2023-05-17T15:09:20;3.43;;;2.90;;
71172;SDS011;58875;51.996;4.504;2023-05-17T15:11:48;3.58;;;3.01;;
71172;SDS011;58875;51.996;4.504;2023-05-17T15:14:15;3.63;;;3.06;;
71172;SDS011;58875;51.996;4.504;2023-05-17T15:16:47;3.73;;;3.11;;
71172;SDS011;58875;51.996;4.504;2023-05-17T15:19:13;3.89;;;3.20;;
71172;SDS011;58875;51.996;4.504;2023-05-17T15:21:40;3.68;;;3.00;;
71172;SDS011;58875;51.996;4.504;2023-05-17T15:24:06;3.78;;;3.08;;